createdAt,value
2018-06-01T00:01:34.535Z,21.21
2018-06-01T00:04:02.186Z,21.33
2018-06-01T00:06:29.884Z,21.37
2018-06-01T00:08:57.568Z,21.26
2018-06-01T00:11:25.395Z,21.21
2018-06-01T00:13:53.069Z,21.18
2018-06-01T00:16:20.715Z,21.17
2018-06-01T00:18:48.289Z,21.16
2018-06-01T00:21:15.922Z,21.19
2018-06-01T00:23:43.546Z,21.18
2018-06-01T00:26:11.113Z,21.22
2018-06-01T00:28:38.682Z,21.25
2018-06-01T00:31:07.348Z,21.25
2018-06-01T00:33:36.380Z,21.11
2018-06-01T00:36:04.088Z,21.10
2018-06-01T00:38:31.735Z,21.09
2018-06-01T00:40:59.413Z,21.09
2018-06-01T00:43:27.366Z,21.09
2018-06-01T00:45:55.129Z,21.12
2018-06-01T00:48:22.904Z,21.11
2018-06-01T00:50:50.727Z,21.05
2018-06-01T00:53:20.405Z,21.04
2018-06-01T00:55:48.113Z,21.03
2018-06-01T00:58:15.756Z,21.00
2018-06-01T01:00:43.440Z,20.93
2018-06-01T01:03:11.962Z,20.88
2018-06-01T01:05:39.718Z,20.86
2018-06-01T01:08:08.414Z,20.83
2018-06-01T01:10:36.128Z,20.79
2018-06-01T01:13:03.785Z,20.77
2018-06-01T01:15:31.482Z,20.76
2018-06-01T01:17:59.188Z,20.75
2018-06-01T01:20:26.820Z,20.74
2018-06-01T01:22:54.429Z,20.74
2018-06-01T01:25:22.088Z,20.71
2018-06-01T01:27:49.617Z,20.69
2018-06-01T01:30:17.180Z,20.55
2018-06-01T01:32:44.718Z,20.39
2018-06-01T01:35:13.238Z,20.37
2018-06-01T01:37:40.883Z,20.35
2018-06-01T01:40:08.449Z,20.22
2018-06-01T01:42:36.027Z,20.15
2018-06-01T01:45:03.670Z,20.33
2018-06-01T01:47:31.239Z,20.34
2018-06-01T01:49:58.760Z,20.31
2018-06-01T01:52:26.380Z,20.31
2018-06-01T01:54:54.040Z,20.26
2018-06-01T01:57:21.619Z,20.20
2018-06-01T01:59:49.224Z,20.17
2018-06-01T02:02:17.329Z,20.17
2018-06-01T02:04:45.005Z,20.18
2018-06-01T02:07:12.756Z,20.19
2018-06-01T02:09:40.285Z,20.15
2018-06-01T02:12:07.901Z,20.09
2018-06-01T02:14:35.588Z,20.08
2018-06-01T02:17:03.347Z,20.09
2018-06-01T02:19:31.222Z,20.11
2018-06-01T02:21:58.998Z,20.12
2018-06-01T02:24:26.655Z,20.14
2018-06-01T02:26:54.274Z,20.00
2018-06-01T02:29:24.060Z,19.95
2018-06-01T02:31:51.605Z,19.95
2018-06-01T02:34:19.144Z,19.92
2018-06-01T02:36:46.685Z,19.91
2018-06-01T02:39:14.300Z,19.93
2018-06-01T02:41:41.868Z,19.95
2018-06-01T02:44:09.400Z,19.92
2018-06-01T02:46:36.955Z,19.86
2018-06-01T02:49:04.561Z,19.85
2018-06-01T02:51:32.278Z,19.82
2018-06-01T02:54:00.009Z,19.82
2018-06-01T02:56:27.557Z,19.73
2018-06-01T02:58:55.092Z,19.68
2018-06-01T03:01:22.672Z,19.64
2018-06-01T03:03:50.245Z,19.60
2018-06-01T03:06:18.477Z,19.61
2018-06-01T03:08:46.023Z,19.61
2018-06-01T03:11:13.671Z,19.57
2018-06-01T03:13:41.337Z,19.60
2018-06-01T03:16:08.891Z,19.66
2018-06-01T03:18:36.450Z,19.56
2018-06-01T03:21:04.033Z,19.57
2018-06-01T03:23:31.614Z,19.61
2018-06-01T03:25:59.246Z,19.64
2018-06-01T03:28:26.848Z,19.54
2018-06-01T03:30:54.525Z,19.49
2018-06-01T03:33:22.070Z,19.41
2018-06-01T03:35:49.707Z,19.39
2018-06-01T03:38:17.233Z,19.43
2018-06-01T03:40:44.789Z,19.51
2018-06-01T03:43:15.206Z,19.55
2018-06-01T03:45:42.843Z,19.57
2018-06-01T03:48:10.694Z,19.57
2018-06-01T03:50:38.321Z,19.63
2018-06-01T03:53:05.899Z,19.60
2018-06-01T03:55:33.640Z,19.62
2018-06-01T03:58:01.226Z,19.55
2018-06-01T04:00:28.781Z,19.48
2018-06-01T04:02:56.714Z,19.46
2018-06-01T04:05:24.372Z,19.55
2018-06-01T04:07:52.031Z,19.62
2018-06-01T04:10:19.700Z,19.57
2018-06-01T04:12:47.319Z,19.64
2018-06-01T04:15:15.068Z,19.72
2018-06-01T04:17:42.714Z,19.71
2018-06-01T04:20:10.328Z,19.72
2018-06-01T04:22:37.957Z,19.74
2018-06-01T04:25:05.570Z,19.79
2018-06-01T04:27:33.152Z,19.85
2018-06-01T04:30:00.676Z,19.87
2018-06-01T04:32:28.269Z,19.85
2018-06-01T04:34:55.827Z,19.82
2018-06-01T04:37:23.428Z,19.84
2018-06-01T04:39:51.036Z,19.91
2018-06-01T04:42:19.476Z,19.93
2018-06-01T04:44:47.163Z,20.06
2018-06-01T04:47:14.983Z,20.09
2018-06-01T04:49:42.591Z,20.20
2018-06-01T04:52:10.250Z,20.31
2018-06-01T04:54:37.980Z,20.33
2018-06-01T04:57:05.644Z,20.42
2018-06-01T04:59:34.243Z,20.45
2018-06-01T05:02:02.128Z,20.44
2018-06-01T05:04:29.908Z,20.45
2018-06-01T05:06:57.582Z,20.44
2018-06-01T05:11:59.014Z,20.38
2018-06-01T05:14:26.710Z,20.29
2018-06-01T05:16:54.371Z,20.23
2018-06-01T05:19:22.208Z,20.25
2018-06-01T05:24:23.800Z,20.38
2018-06-01T05:26:51.475Z,20.41
2018-06-01T05:29:19.117Z,20.43
2018-06-01T05:31:46.768Z,20.46
2018-06-01T05:34:14.441Z,20.46
2018-06-01T05:36:42.108Z,20.59
2018-06-01T05:39:10.654Z,20.62
2018-06-01T05:41:38.307Z,20.77
2018-06-01T05:44:05.952Z,20.94
2018-06-01T05:46:35.300Z,21.09
2018-06-01T05:49:02.896Z,21.22
2018-06-01T05:51:30.479Z,21.31
2018-06-01T05:53:58.188Z,21.44
2018-06-01T05:56:25.908Z,21.56
2018-06-01T05:58:53.575Z,21.53
2018-06-01T06:01:21.441Z,21.63
2018-06-01T06:03:49.143Z,21.67
2018-06-01T06:06:16.756Z,21.79
2018-06-01T06:08:44.402Z,21.86
2018-06-01T06:11:11.978Z,21.93
2018-06-01T06:13:40.671Z,22.13
2018-06-01T06:16:08.370Z,22.06
2018-06-01T06:18:36.036Z,22.17
2018-06-01T06:21:03.681Z,22.30
2018-06-01T06:23:31.267Z,22.25
2018-06-01T06:25:58.935Z,22.38
2018-06-01T06:28:26.630Z,22.51
2018-06-01T06:30:54.281Z,22.66
2018-06-01T06:33:22.002Z,22.43
2018-06-01T06:35:49.665Z,22.49
2018-06-01T06:38:17.344Z,22.68
2018-06-01T06:40:44.964Z,22.87
2018-06-01T06:43:12.791Z,22.86
2018-06-01T06:45:41.349Z,23.10
2018-06-01T06:50:36.131Z,22.79
2018-06-01T06:53:03.868Z,23.10
2018-06-01T06:58:06.502Z,23.18
2018-06-01T07:00:34.567Z,23.04
2018-06-01T07:03:02.090Z,22.66
2018-06-01T07:05:29.658Z,22.65
2018-06-01T07:07:57.309Z,22.77
2018-06-01T07:10:25.722Z,22.57
2018-06-01T07:12:53.418Z,22.49
2018-06-01T07:15:22.207Z,22.50
2018-06-01T07:17:49.974Z,22.41
2018-06-01T07:20:17.753Z,22.30
2018-06-01T07:22:45.958Z,22.25
2018-06-01T07:25:13.745Z,22.24
2018-06-01T07:27:41.344Z,22.40
2018-06-01T07:30:08.991Z,22.33
2018-06-01T07:32:36.537Z,22.29
2018-06-01T07:35:04.126Z,22.33
2018-06-01T07:37:32.652Z,22.35
2018-06-01T07:40:00.230Z,22.08
2018-06-01T07:42:28.029Z,22.14
2018-06-01T07:44:55.772Z,22.22
2018-06-01T07:47:23.483Z,22.01
2018-06-01T07:49:51.264Z,22.06
2018-06-01T07:52:18.976Z,22.30
2018-06-01T07:54:46.698Z,22.55
2018-06-01T07:57:14.386Z,22.69
2018-06-01T07:59:41.970Z,23.06
2018-06-01T08:02:09.802Z,23.02
2018-06-01T08:04:37.806Z,23.12
2018-06-01T08:07:05.597Z,23.06
2018-06-01T08:09:34.745Z,22.78
2018-06-01T08:12:02.439Z,22.83
2018-06-01T08:14:30.720Z,22.76
2018-06-01T08:16:59.611Z,22.92
2018-06-01T08:19:28.337Z,23.04
2018-06-01T08:21:55.908Z,23.14
2018-06-01T08:24:23.606Z,23.22
2018-06-01T08:26:55.027Z,23.33
2018-06-01T08:29:24.083Z,23.21
2018-06-01T08:31:52.740Z,23.16
2018-06-01T08:34:20.866Z,23.14
2018-06-01T08:36:52.263Z,22.99
2018-06-01T08:42:00.032Z,23.15
2018-06-01T08:44:28.234Z,23.19
2018-06-01T08:46:55.921Z,23.10
2018-06-01T08:49:25.852Z,22.72
2018-06-01T08:51:53.627Z,22.65
2018-06-01T08:54:21.369Z,22.87
2018-06-01T08:56:49.064Z,22.90
2018-06-01T08:59:21.286Z,23.14
2018-06-01T09:01:48.909Z,22.68
2018-06-01T09:04:16.630Z,22.70
2018-06-01T09:06:44.277Z,22.59
2018-06-01T09:09:14.973Z,22.58
2018-06-01T09:11:42.653Z,22.73
2018-06-01T09:14:13.895Z,22.67
2018-06-01T09:16:47.735Z,22.49
2018-06-01T09:19:15.339Z,22.50
2018-06-01T09:21:44.752Z,22.39
2018-06-01T09:24:12.463Z,22.72
2018-06-01T09:26:42.681Z,22.81
2018-06-01T09:29:10.596Z,22.88
2018-06-01T09:31:43.406Z,23.00
2018-06-01T09:34:12.514Z,22.93
2018-06-01T09:36:43.348Z,22.88
2018-06-01T09:39:12.359Z,22.98
2018-06-01T09:41:45.096Z,22.99
2018-06-01T09:44:13.184Z,22.87
2018-06-01T09:46:41.741Z,22.78
2018-06-01T09:52:26.177Z,22.95
2018-06-01T09:54:54.850Z,23.02
2018-06-01T09:57:22.967Z,23.13
2018-06-01T09:59:51.480Z,23.43
2018-06-01T10:02:21.333Z,23.63
2018-06-01T10:04:49.075Z,23.61
2018-06-01T10:07:16.829Z,23.78
2018-06-01T10:12:29.987Z,24.43
2018-06-01T10:14:57.712Z,24.18
2018-06-01T10:17:27.221Z,24.19
2018-06-01T10:19:56.233Z,24.28
2018-06-01T10:22:28.354Z,24.42
2018-06-01T10:25:05.420Z,24.50
2018-06-01T10:27:36.382Z,24.50
2018-06-01T10:30:05.639Z,24.54
2018-06-01T10:32:34.633Z,24.73
2018-06-01T10:35:03.646Z,24.77
2018-06-01T10:37:33.605Z,24.66
2018-06-01T10:40:06.768Z,24.88
2018-06-01T10:45:31.487Z,24.41
2018-06-01T10:48:07.069Z,24.38
2018-06-01T10:50:37.623Z,24.45
2018-06-01T10:53:09.130Z,24.61
2018-06-01T10:55:41.633Z,25.04
2018-06-01T10:58:09.527Z,25.41
2018-06-01T11:00:44.895Z,25.59
2018-06-01T11:03:43.262Z,25.67
2018-06-01T11:06:16.203Z,25.87
2018-06-01T11:08:44.063Z,25.67
2018-06-01T11:11:13.831Z,25.49
2018-06-01T11:13:46.479Z,25.57
2018-06-01T11:16:14.215Z,25.79
2018-06-01T11:18:48.721Z,26.09
2018-06-01T11:21:18.544Z,25.66
2018-06-01T11:23:48.537Z,25.74
2018-06-01T11:26:17.454Z,25.86
2018-06-01T11:28:48.865Z,25.68
2018-06-01T11:31:19.669Z,25.54
2018-06-01T11:33:52.045Z,25.55
2018-06-01T11:36:36.116Z,25.43
2018-06-01T11:39:25.140Z,25.70
2018-06-01T11:42:01.837Z,25.38
2018-06-01T11:44:36.060Z,25.82
2018-06-01T11:47:16.027Z,25.79
2018-06-01T11:49:43.859Z,25.83
2018-06-01T11:52:21.710Z,25.94
2018-06-01T11:57:57.404Z,25.98
2018-06-01T12:00:42.631Z,25.92
2018-06-01T12:03:14.467Z,26.23
2018-06-01T12:05:44.712Z,26.49
2018-06-01T12:08:16.106Z,26.53
2018-06-01T12:10:53.252Z,25.70
2018-06-01T12:18:25.843Z,26.09
2018-06-01T12:20:59.891Z,26.46
2018-06-01T12:23:36.189Z,26.76
2018-06-01T12:26:05.846Z,27.08
2018-06-01T12:28:56.208Z,27.11
2018-06-01T12:36:42.854Z,27.28
2018-06-01T12:39:20.381Z,26.90
2018-06-01T12:41:50.988Z,26.94
2018-06-01T12:44:22.731Z,26.49
2018-06-01T12:46:57.385Z,27.02
2018-06-01T12:56:28.994Z,26.38
2018-06-01T12:58:59.137Z,26.57
2018-06-01T13:01:35.316Z,26.96
2018-06-01T13:06:45.261Z,27.35
2018-06-01T13:09:19.565Z,27.59
2018-06-01T13:11:55.096Z,27.69
2018-06-01T13:17:37.027Z,27.46
2018-06-01T13:20:05.840Z,27.25
2018-06-01T13:22:50.412Z,27.07
2018-06-01T13:28:12.526Z,25.92
2018-06-01T13:30:51.346Z,26.41
2018-06-01T13:36:26.727Z,27.04
2018-06-01T13:47:16.333Z,27.17
2018-06-01T13:50:00.473Z,27.37
2018-06-01T14:02:01.646Z,26.35
2018-06-01T14:04:41.096Z,26.66
2018-06-01T14:07:28.794Z,26.67
2018-06-01T14:10:22.343Z,26.77
2018-06-01T14:21:31.353Z,26.71
2018-06-01T14:29:25.234Z,26.19
2018-06-01T14:32:02.619Z,26.65
2018-06-01T14:34:35.182Z,26.84
2018-06-01T14:39:51.511Z,26.97
2018-06-01T14:42:26.347Z,27.04
2018-06-01T14:44:56.730Z,27.20
2018-06-01T14:47:35.034Z,27.06
2018-06-01T14:50:09.424Z,27.29
2018-06-01T14:52:39.400Z,27.53
2018-06-01T14:55:29.720Z,27.77
2018-06-01T14:58:07.692Z,27.96
2018-06-01T15:00:38.380Z,27.85
2018-06-01T15:03:12.927Z,28.15
2018-06-01T15:05:46.391Z,28.14
2018-06-01T15:08:15.088Z,28.19
2018-06-01T15:10:44.871Z,28.48
2018-06-01T15:13:12.528Z,28.61
2018-06-01T15:15:40.218Z,28.45
2018-06-01T15:18:09.153Z,28.05
2018-06-01T15:20:37.755Z,27.76
2018-06-01T15:23:06.305Z,27.76
2018-06-01T15:28:10.338Z,27.82
2018-06-01T15:30:39.016Z,27.76
2018-06-01T15:33:06.929Z,27.79
2018-06-01T15:35:38.628Z,27.64
2018-06-01T15:38:15.980Z,27.56
2018-06-01T15:40:46.561Z,27.53
2018-06-01T15:43:21.280Z,27.60
2018-06-01T15:45:56.372Z,27.64
2018-06-01T15:48:31.067Z,27.55
2018-06-01T15:50:59.462Z,27.49
2018-06-01T15:53:42.967Z,27.38
2018-06-01T15:56:31.880Z,27.28
2018-06-01T15:59:11.232Z,27.36
2018-06-01T16:01:45.080Z,27.61
2018-06-01T16:04:16.630Z,27.77
2018-06-01T16:06:47.380Z,27.77
2018-06-01T16:09:17.730Z,27.54
2018-06-01T16:11:52.984Z,27.40
2018-06-01T16:14:24.384Z,27.49
2018-06-01T16:17:00.424Z,27.64
2018-06-01T16:19:30.905Z,27.43
2018-06-01T16:24:51.082Z,27.46
2018-06-01T16:27:22.817Z,27.43
2018-06-01T16:30:09.321Z,27.52
2018-06-01T16:32:40.626Z,27.55
2018-06-01T16:35:17.073Z,27.54
2018-06-01T16:37:48.837Z,27.09
2018-06-01T16:40:22.927Z,27.19
2018-06-01T16:42:53.139Z,27.06
2018-06-01T16:45:26.894Z,27.06
2018-06-01T16:47:56.420Z,26.93
2018-06-01T16:52:58.864Z,26.91
2018-06-01T16:55:29.480Z,26.66
2018-06-01T16:58:02.268Z,26.70
2018-06-01T17:00:38.001Z,26.74
2018-06-01T17:03:09.556Z,26.72
2018-06-01T17:05:43.414Z,26.55
2018-06-01T17:10:52.576Z,26.48
2018-06-01T17:13:21.779Z,26.50
2018-06-01T17:15:51.434Z,26.41
2018-06-01T17:18:27.048Z,26.45
2018-06-01T17:21:00.102Z,26.51
2018-06-01T17:23:28.362Z,26.44
2018-06-01T17:26:02.035Z,26.22
2018-06-01T17:28:38.817Z,26.20
2018-06-01T17:31:17.934Z,26.23
2018-06-01T17:33:50.819Z,26.18
2018-06-01T17:36:29.975Z,26.32
2018-06-01T17:39:02.714Z,26.28
2018-06-01T17:41:35.116Z,26.20
2018-06-01T17:44:09.740Z,26.14
2018-06-01T17:46:54.417Z,26.07
2018-06-01T17:49:36.929Z,25.90
2018-06-01T17:52:20.267Z,25.89
2018-06-01T17:58:17.068Z,25.75
2018-06-01T18:00:51.320Z,25.62
2018-06-01T18:03:25.927Z,25.62
2018-06-01T18:06:04.705Z,25.67
2018-06-01T18:11:31.754Z,25.47
2018-06-01T18:16:53.892Z,25.43
2018-06-01T18:19:42.669Z,25.40
2018-06-01T18:22:15.544Z,25.41
2018-06-01T18:24:57.588Z,25.21
2018-06-01T18:27:28.305Z,25.13
2018-06-01T18:29:59.974Z,24.97
2018-06-01T18:32:32.760Z,24.76
2018-06-01T18:35:07.957Z,24.61
2018-06-01T18:37:46.612Z,24.55
2018-06-01T18:40:16.638Z,24.43
2018-06-01T18:42:45.793Z,24.33
2018-06-01T18:45:14.980Z,24.19
2018-06-01T18:47:51.631Z,24.02
2018-06-01T18:50:21.478Z,24.00
2018-06-01T18:52:54.493Z,23.87
2018-06-01T18:55:24.927Z,23.81
2018-06-01T18:57:55.422Z,23.65
2018-06-01T19:00:27.871Z,23.61
2018-06-01T19:02:56.368Z,23.62
2018-06-01T19:05:27.116Z,23.63
2018-06-01T19:08:00.066Z,23.59
2018-06-01T19:10:33.790Z,23.27
2018-06-01T19:13:01.583Z,23.39
2018-06-01T19:15:30.397Z,23.36
2018-06-01T19:18:01.147Z,23.27
2018-06-01T19:20:33.581Z,23.18
2018-06-01T19:23:05.224Z,23.25
2018-06-01T19:25:34.209Z,23.28
2018-06-01T19:28:02.964Z,23.29
2018-06-01T19:30:52.813Z,23.24
2018-06-01T19:33:21.631Z,23.13
2018-06-01T19:35:50.763Z,23.03
2018-06-01T19:38:18.998Z,22.98
2018-06-01T19:40:47.381Z,22.97
2018-06-01T19:43:17.455Z,22.83
2018-06-01T19:45:45.395Z,22.75
2018-06-01T19:48:13.379Z,22.73
2018-06-01T19:50:42.433Z,22.69
2018-06-01T19:53:23.620Z,22.48
2018-06-01T19:55:52.409Z,22.44
2018-06-01T19:58:22.291Z,22.35
2018-06-01T20:00:50.041Z,22.30
2018-06-01T20:03:20.329Z,22.22
2018-06-01T20:05:49.311Z,22.09
2018-06-01T20:08:17.076Z,22.11
2018-06-01T20:10:44.848Z,22.04
2018-06-01T20:13:15.006Z,22.01
2018-06-01T20:15:43.569Z,22.05
2018-06-01T20:18:12.273Z,21.86
2018-06-01T20:20:42.087Z,21.96
2018-06-01T20:23:12.224Z,21.94
2018-06-01T20:25:40.532Z,21.92
2018-06-01T20:28:09.133Z,21.93
2018-06-01T20:30:36.722Z,21.84
2018-06-01T20:33:04.478Z,21.74
2018-06-01T20:35:33.944Z,21.75
2018-06-01T20:38:02.738Z,21.79
2018-06-01T20:40:30.368Z,21.75
2018-06-01T20:42:58.049Z,21.66
2018-06-01T20:45:25.739Z,21.52
2018-06-01T20:47:53.410Z,21.49
2018-06-01T20:50:21.155Z,21.37
2018-06-01T20:52:49.079Z,21.35
2018-06-01T20:55:16.890Z,21.36
2018-06-01T20:57:44.463Z,21.43
2018-06-01T21:00:12.860Z,21.35
2018-06-01T21:02:40.443Z,21.31
2018-06-01T21:05:09.982Z,21.37
2018-06-01T21:07:38.357Z,21.38
2018-06-01T21:10:06.725Z,21.37
2018-06-01T21:12:34.329Z,21.39
2018-06-01T21:15:02.102Z,21.42
2018-06-01T21:17:29.794Z,21.42
2018-06-01T21:19:58.352Z,21.29
2018-06-01T21:22:25.997Z,21.23
2018-06-01T21:24:53.676Z,21.16
2018-06-01T21:27:21.332Z,21.05
2018-06-01T21:29:49.053Z,21.05
2018-06-01T21:32:17.384Z,21.07
2018-06-01T21:34:45.120Z,21.08
2018-06-01T21:37:13.114Z,21.04
2018-06-01T21:39:41.719Z,21.02
2018-06-01T21:42:09.432Z,20.95
2018-06-01T21:44:37.108Z,20.89
2018-06-01T21:47:04.775Z,20.88
2018-06-01T21:49:32.449Z,20.83
2018-06-01T21:52:00.140Z,20.72
2018-06-01T21:54:27.812Z,20.67
2018-06-01T21:56:55.480Z,20.57
2018-06-01T21:59:23.226Z,20.57
2018-06-01T22:01:50.899Z,20.60
2018-06-01T22:04:18.691Z,20.64
2018-06-01T22:06:46.397Z,20.67
2018-06-01T22:09:14.080Z,20.65
2018-06-01T22:11:41.927Z,20.62
2018-06-01T22:14:09.632Z,20.60
2018-06-01T22:16:37.498Z,20.53
2018-06-01T22:19:05.174Z,20.41
2018-06-01T22:21:32.765Z,20.40
2018-06-01T22:24:03.827Z,20.39
2018-06-01T22:26:31.536Z,20.36
2018-06-01T22:28:59.179Z,20.26
2018-06-01T22:31:26.762Z,20.20
2018-06-01T22:33:54.444Z,20.16
2018-06-01T22:36:22.076Z,20.15
2018-06-01T22:38:49.808Z,20.09
2018-06-01T22:41:17.946Z,20.01
2018-06-01T22:43:45.644Z,19.97
2018-06-01T22:46:13.505Z,19.92
2018-06-01T22:48:41.104Z,19.90
2018-06-01T22:51:12.219Z,19.89
2018-06-01T22:53:39.912Z,19.87
2018-06-01T22:56:07.601Z,19.85
2018-06-01T22:58:35.243Z,19.87
2018-06-01T23:01:02.899Z,19.82
2018-06-01T23:03:30.570Z,19.78
2018-06-01T23:05:58.218Z,19.54
2018-06-01T23:08:25.905Z,19.74
2018-06-01T23:10:53.580Z,19.67
2018-06-01T23:13:21.964Z,18.78
2018-06-01T23:15:49.500Z,19.57
2018-06-01T23:18:18.512Z,19.45
2018-06-01T23:20:46.053Z,19.41
2018-06-01T23:23:13.838Z,19.36
2018-06-01T23:25:41.430Z,19.38
2018-06-01T23:28:09.008Z,19.32
2018-06-01T23:30:36.704Z,19.33
2018-06-01T23:33:04.348Z,19.23
2018-06-01T23:35:32.012Z,19.16
2018-06-01T23:37:59.691Z,19.19
2018-06-01T23:40:27.350Z,19.25
2018-06-01T23:42:54.977Z,19.27
2018-06-01T23:45:22.788Z,19.23
2018-06-01T23:47:50.466Z,19.31
2018-06-01T23:50:18.079Z,19.23
2018-06-01T23:52:45.775Z,19.10
2018-06-01T23:55:13.409Z,19.11
2018-06-01T23:57:41.116Z,19.17
